Volga-4011 — UBNJ — position and weather

sailwx.info

Track history (hours):
 
Tides and Currents Weather Stations Pressure Air Temp Water Temp Dewpoint Dewpoint Depression Visibility Wind Speed Wind Dir Waves Ship Positions

Volga-4011

Last reported at 2018-Apr-14 13:26 UTC. Time now 2018-Apr-23 21:16 UTC.
Position N 37°41' E 122°37'.
Warning: this ship's position is 9 days out of date.

Length 140 m; draft 3.5 m.

Type: Ship. MMSI: 273358200.

Date/timePositionNaut miles runAvg speedWind from/ knotsBaromVisibWave heightAir tempDewpointWater temp
2018-Apr-14 13:26N 37°41' E 122°37'15 6.5
2018-Apr-14 11:10N 37°44' E 122°19'2 6.3
2018-Apr-14 10:56N 37°43' E 122°17'3 6.2
2018-Apr-14 10:30N 37°42' E 122°14'3 6.1
2018-Apr-14 10:00N 37°42' E 122°10'3 6.4
2018-Apr-14 09:31N 37°43' E 122°06'3 6.5
2018-Apr-14 09:00N 37°44' E 122°02'3 6.7
2018-Apr-14 08:31N 37°44' E 121°58'4 6.9
2018-Apr-14 07:59N 37°45' E 121°54'3 7.1
2018-Apr-14 07:31N 37°46' E 121°50'4 7.0
2018-Apr-14 07:00N 37°47' E 121°45'3 7.0
2018-Apr-14 06:30N 37°48' E 121°41'3 6.8
2018-Apr-14 06:00N 37°49' E 121°37'3 6.7
2018-Apr-14 05:30N 37°50' E 121°33'3 6.6
2018-Apr-14 05:00N 37°51' E 121°29'4 7.5
2018-Apr-14 04:30N 37°52' E 121°24'4 8.8
2018-Apr-14 04:00N 37°53' E 121°19'4 8.5
2018-Apr-14 03:30N 37°54' E 121°14'4 8.4
2018-Apr-14 03:01N 37°54' E 121°08'4 8.7
2018-Apr-14 02:30N 37°52' E 121°03'4 8.9
2018-Apr-14 02:01N 37°52' E 120°57'4 8.6
2018-Apr-14 01:30N 37°52' E 120°52'3 5.2
2018-Apr-14 01:01N 37°50' E 120°49'1 1.8
2018-Apr-14 00:29N 37°49' E 120°50'0 0.0
2018-Apr-13 23:59N 37°49' E 120°50'0 0.0
2018-Apr-13 23:29N 37°49' E 120°50'0 0.0
2018-Apr-13 22:59N 37°49' E 120°50'0 0.0
2018-Apr-13 22:29N 37°49' E 120°50'0 0.0
2018-Apr-13 21:59N 37°49' E 120°50'0 0.0
2018-Apr-13 21:29N 37°49' E 120°50'0 0.0
2018-Apr-13 20:59N 37°49' E 120°50'0 0.0
2018-Apr-13 20:29N 37°49' E 120°50'0 0.0
2018-Apr-13 19:59N 37°49' E 120°50'0 0.0
2018-Apr-13 19:29N 37°49' E 120°50'0 0.0
2018-Apr-13 18:59N 37°49' E 120°50'0 0.0
2018-Apr-13 18:29N 37°49' E 120°50'0 0.0
2018-Apr-13 17:59N 37°49' E 120°50'0 0.0
2018-Apr-13 17:29N 37°49' E 120°50'0 0.0
2018-Apr-13 16:59N 37°49' E 120°50'0 0.0
2018-Apr-13 16:29N 37°49' E 120°50'0 0.0
2018-Apr-13 15:59N 37°49' E 120°50'0 0.0
2018-Apr-13 15:23N 37°49' E 120°50'0 0.0
2018-Apr-13 14:59N 37°49' E 120°50'0 0.0
2018-Apr-13 14:29N 37°49' E 120°50'0 0.0
2018-Apr-13 13:50N 37°49' E 120°50'0 0.0
2018-Apr-13 13:29N 37°49' E 120°50'0 0.0
2018-Apr-13 12:59N 37°49' E 120°50'0 0.0
2018-Apr-13 12:28N 37°49' E 120°50'0 0.0
2018-Apr-13 11:58N 37°49' E 120°50'0 0.0
2018-Apr-13 11:19N 37°49' E 120°50'0 0.0
2018-Apr-13 10:58N 37°49' E 120°50'0 0.0
2018-Apr-13 10:28N 37°49' E 120°50'0 0.0
2018-Apr-13 09:58N 37°49' E 120°50'0 0.0
2018-Apr-13 09:28N 37°49' E 120°50'0 0.0
2018-Apr-13 08:58N 37°49' E 120°50'0 0.0
2018-Apr-13 08:28N 37°49' E 120°50'0 0.0
2018-Apr-13 07:58N 37°49' E 120°50'0 0.0
2018-Apr-13 07:28N 37°49' E 120°50'0 0.0
2018-Apr-13 06:58N 37°49' E 120°50'0 0.0
2018-Apr-13 06:28N 37°49' E 120°50'0 0.0
2018-Apr-13 05:58N 37°49' E 120°50'0 0.0
2018-Apr-13 05:28N 37°49' E 120°50'0 0.0
2018-Apr-13 04:58N 37°49' E 120°50'0 0.0
2018-Apr-13 04:28N 37°49' E 120°50'0 0.0
2018-Apr-13 03:58N 37°49' E 120°50'0 0.0
2018-Apr-13 03:28N 37°49' E 120°50'0 0.0
2018-Apr-13 02:58N 37°49' E 120°50'0 0.0
2018-Apr-13 02:28N 37°49' E 120°50'0 0.0
2018-Apr-13 01:58N 37°49' E 120°50'0 0.0
2018-Apr-13 01:28N 37°49' E 120°50'0 0.0
2018-Apr-13 00:58N 37°49' E 120°50'0 0.0
2018-Apr-13 00:25N 37°49' E 120°50'0 0.0
2018-Apr-12 23:58N 37°49' E 120°50'0 0.0
2018-Apr-12 23:28N 37°49' E 120°50'0 0.0
2018-Apr-12 22:58N 37°49' E 120°50'0 0.0
2018-Apr-12 22:28N 37°49' E 120°50'0 0.0
2018-Apr-12 21:58N 37°49' E 120°50'0 0.0
2018-Apr-12 21:28N 37°49' E 120°50'0 0.0
2018-Apr-12 20:58N 37°49' E 120°50'0 0.1
2018-Apr-12 20:28N 37°49' E 120°50'0 0.1
2018-Apr-12 19:58N 37°49' E 120°50'0 0.0
2018-Apr-12 19:28N 37°49' E 120°50'0 0.0
2018-Apr-12 18:58N 37°49' E 120°50'0 0.0
2018-Apr-12 18:28N 37°49' E 120°50'0 0.1
2018-Apr-12 17:58N 37°49' E 120°50'0 0.1
2018-Apr-12 17:28N 37°49' E 120°50'0 0.0
2018-Apr-12 16:58N 37°49' E 120°50'0 0.0
2018-Apr-12 16:28N 37°49' E 120°50'0 0.0
2018-Apr-12 15:58N 37°49' E 120°50'0 0.0
2018-Apr-12 15:28N 37°49' E 120°50'0 0.1
2018-Apr-12 14:58N 37°49' E 120°50'0 0.1
2018-Apr-12 14:28N 37°49' E 120°50'0 0.0
2018-Apr-12 13:58N 37°49' E 120°50'0 0.0
2018-Apr-12 13:28N 37°49' E 120°50'0 0.0
2018-Apr-12 12:58N 37°49' E 120°50'0 0.0
2018-Apr-12 12:28N 37°49' E 120°50'0 0.0
2018-Apr-12 11:58N 37°49' E 120°50'0 0.0
2018-Apr-12 11:25N 37°49' E 120°50'0 0.0
2018-Apr-12 10:58N 37°49' E 120°50'0 0.0
2018-Apr-12 10:28N 37°49' E 120°50'0 0.0
2018-Apr-12 09:55N 37°49' E 120°50'0 0.0
2018-Apr-12 09:28N 37°49' E 120°50'0 0.0
2018-Apr-12 08:58N 37°49' E 120°50'0 0.0
2018-Apr-12 08:28N 37°49' E 120°50'0 0.0
2018-Apr-12 07:58N 37°49' E 120°50'0 0.0
2018-Apr-12 07:29N 37°49' E 120°50'0 0.0
2018-Apr-12 06:59N 37°49' E 120°50'0 0.0
2018-Apr-12 06:29N 37°49' E 120°50'0 0.0
2018-Apr-12 05:59N 37°49' E 120°50'0 0.0
2018-Apr-12 05:26N 37°49' E 120°50'0 0.0
2018-Apr-12 04:59N 37°49' E 120°50'0 0.0
2018-Apr-12 04:29N 37°49' E 120°50'0 0.0
2018-Apr-12 03:56N 37°49' E 120°50'0 0.0
2018-Apr-12 03:29N 37°49' E 120°50'0 0.1
2018-Apr-12 02:59N 37°49' E 120°50'0 0.1
2018-Apr-12 02:29N 37°49' E 120°50'0 0.0
2018-Apr-12 02:00N 37°49' E 120°50'2 4.1
2018-Apr-12 01:31N 37°50' E 120°48'0 0.3
2018-Apr-12 01:00N 37°50' E 120°48'0 0.0
2018-Apr-12 00:30N 37°50' E 120°48'0 0.1
2018-Apr-12 00:00N 37°51' E 120°48'0 0.2
2018-Apr-11 23:24N 37°50' E 120°48'0 0.2
2018-Apr-11 23:00N 37°50' E 120°48'0 0.1
2018-Apr-11 22:30N 37°50' E 120°48'0 0.0
2018-Apr-11 22:00N 37°50' E 120°48'0 0.0
2018-Apr-11 21:30N 37°50' E 120°48'0 0.0
2018-Apr-11 21:00N 37°50' E 120°48'0 0.0
2018-Apr-11 20:30N 37°50' E 120°48'0 0.0
2018-Apr-11 20:00N 37°50' E 120°48'0 0.1
2018-Apr-11 19:30N 37°50' E 120°48'0 0.1
2018-Apr-11 19:00N 37°50' E 120°48'0 0.0
2018-Apr-11 18:30N 37°50' E 120°48'0 0.1
2018-Apr-11 18:00N 37°50' E 120°48'0 0.2
2018-Apr-11 17:30N 37°51' E 120°48'0 0.1
2018-Apr-11 17:00N 37°51' E 120°48'0 0.1
2018-Apr-11 16:30N 37°51' E 120°48'0 0.0
2018-Apr-11 16:00N 37°51' E 120°48'0 0.0
2018-Apr-11 15:30N 37°50' E 120°48'0 0.0
2018-Apr-11 15:00N 37°50' E 120°48'0 0.0
2018-Apr-11 14:30N 37°50' E 120°48'0 0.0
2018-Apr-11 14:00N 37°50' E 120°48'0 0.0
2018-Apr-11 13:30N 37°50' E 120°48'0 0.0
2018-Apr-11 13:00N 37°50' E 120°48'0 0.0
2018-Apr-11 12:27N 37°50' E 120°48'0 0.0
2018-Apr-11 12:00N 37°50' E 120°48'0 0.1
2018-Apr-11 11:30N 37°51' E 120°48'0 0.1
2018-Apr-11 11:00N 37°51' E 120°48'0 0.1
2018-Apr-11 10:30N 37°51' E 120°48'0 0.0
2018-Apr-11 10:00N 37°51' E 120°48'0 0.0
2018-Apr-11 09:27N 37°51' E 120°48'0 0.0
2018-Apr-11 09:00N 37°50' E 120°48'0 0.0
2018-Apr-11 08:30N 37°50' E 120°48'0 0.0
2018-Apr-11 08:00N 37°50' E 120°48'0 0.0
2018-Apr-11 07:30N 37°50' E 120°48'0 0.0
2018-Apr-11 07:00N 37°50' E 120°48'0 0.0
2018-Apr-11 06:24N 37°50' E 120°48'0 0.0
2018-Apr-11 05:57N 37°50' E 120°48'0 0.1
2018-Apr-11 05:30N 37°50' E 120°48'0 0.0
2018-Apr-11 05:00N 37°50' E 120°48'0 0.1
2018-Apr-11 04:30N 37°50' E 120°48'0 0.0
2018-Apr-11 04:00N 37°50' E 120°48'0 0.0
2018-Apr-11 03:27N 37°50' E 120°48'0 0.1
2018-Apr-11 02:54N 37°50' E 120°48'0 0.1
2018-Apr-11 02:30N 37°50' E 120°48'0 0.0
2018-Apr-11 02:00N 37°50' E 120°48'0 0.0
2018-Apr-11 01:30N 37°50' E 120°48'0 0.0
2018-Apr-11 01:00N 37°51' E 120°48'0 0.0
2018-Apr-11 00:30N 37°50' E 120°48'0 0.0
2018-Apr-11 00:00N 37°51' E 120°48'0 0.0
2018-Apr-10 23:28N 37°51' E 120°48'0 0.0
2018-Apr-10 22:58N 37°51' E 120°48'0 0.0
2018-Apr-10 22:28N 37°50' E 120°48'0 0.0
2018-Apr-10 21:58N 37°50' E 120°48'0 0.0
2018-Apr-10 21:28N 37°51' E 120°48'0 0.0
2018-Apr-10 20:58N 37°50' E 120°48'0 0.0
2018-Apr-10 20:28N 37°50' E 120°48'0 0.0
2018-Apr-10 19:58N 37°50' E 120°48'0 0.0
2018-Apr-10 19:28N 37°50' E 120°48'0 0.0
2018-Apr-10 18:58N 37°50' E 120°48'0 0.0
2018-Apr-10 18:28N 37°50' E 120°48'0 0.0
2018-Apr-10 17:58N 37°50' E 120°48'0 0.0
2018-Apr-10 17:25N 37°50' E 120°48'0 0.0
2018-Apr-10 16:58N 37°50' E 120°48'0 0.1
2018-Apr-10 16:19N 37°50' E 120°48'0 0.1
2018-Apr-10 15:58N 37°50' E 120°48'0 0.1
2018-Apr-10 15:28N 37°50' E 120°48'0 0.1
2018-Apr-10 14:58N 37°50' E 120°48'0 0.0
2018-Apr-10 14:28N 37°50' E 120°48'0 0.0
2018-Apr-10 13:58N 37°50' E 120°48'0 0.0
2018-Apr-10 13:28N 37°50' E 120°48'0 0.0
2018-Apr-10 12:58N 37°50' E 120°48'0 0.0
2018-Apr-10 12:28N 37°50' E 120°48'0 0.1
2018-Apr-10 11:58N 37°51' E 120°48'0 0.1
2018-Apr-10 11:28N 37°51' E 120°48'0 0.1
2018-Apr-10 10:58N 37°51' E 120°48'0 0.0
2018-Apr-10 10:28N 37°51' E 120°48'0 0.9
2018-Apr-10 10:00N 37°51' E 120°49'3 6.9
2018-Apr-10 09:30N 37°52' E 120°53'4 8.3
2018-Apr-10 09:00N 37°53' E 120°58'4 7.5
2018-Apr-10 08:30N 37°54' E 121°03'4 8.2
2018-Apr-10 08:00N 37°54' E 121°08'4 7.9
2018-Apr-10 07:28N 37°54' E 121°13'4 7.7
2018-Apr-10 07:00N 37°53' E 121°17'4 7.7
2018-Apr-10 06:30N 37°53' E 121°22'4 7.7
2018-Apr-10 06:00N 37°52' E 121°27'4 7.7
2018-Apr-10 05:30N 37°51' E 121°32'4 7.9
2018-Apr-10 05:00N 37°50' E 121°37'4 8.1
2018-Apr-10 04:30N 37°50' E 121°42'4 8.2
2018-Apr-10 04:00N 37°49' E 121°47'4 8.1
2018-Apr-10 03:29N 37°48' E 121°52'8 8.1
2018-Apr-10 02:33N 37°46' E 122°01'1 8.0
2018-Apr-10 02:29N 37°46' E 122°02'4 8.1
2018-Apr-10 01:57N 37°44' E 122°07'  
2018-Apr-07 09:20N 35°02' E 129°02'1 3.5
2018-Apr-07 09:00N 35°03' E 129°03'0 0.3
2018-Apr-07 08:26N 35°03' E 129°03'0 0.0
2018-Apr-07 07:56N 35°03' E 129°03'0 0.0
2018-Apr-07 07:29N 35°03' E 129°03'0 0.0
2018-Apr-07 06:56N 35°03' E 129°03'0 0.0
2018-Apr-07 06:29N 35°03' E 129°03'0 0.1
2018-Apr-07 05:59N 35°03' E 129°03'0 0.0
2018-Apr-07 05:26N 35°03' E 129°03'0 0.0
2018-Apr-07 04:56N 35°03' E 129°03'0 0.0
2018-Apr-07 04:29N 35°03' E 129°03'0 0.0
2018-Apr-07 03:59N 35°03' E 129°03'0 0.0
2018-Apr-07 03:20N 35°03' E 129°03'0 0.0
2018-Apr-07 02:56N 35°03' E 129°03'0 0.1
2018-Apr-07 02:30N 35°03' E 129°03'9 5.6
2018-Apr-07 00:50N 35°02' E 129°15'  
Track history (hours):
 
Tides and Currents Weather Stations Pressure Air Temp Water Temp Dewpoint Dewpoint Depression Visibility Wind Speed Wind Dir Waves Ship Positions

Volga-4011

Last reported at 2018-Apr-14 13:26 UTC. Time now 2018-Apr-23 21:16 UTC.
Position N 37°41' E 122°37'.
Warning: this ship's position is 9 days out of date.

Length 140 m; draft 3.5 m.

Type: Ship. MMSI: 273358200.

Date/timePositionNaut miles runAvg speedWind from/ knotsBaromVisibWave heightAir tempDewpointWater temp
2018-Apr-14 13:26N 37°41' E 122°37'15 6.5
2018-Apr-14 11:10N 37°44' E 122°19'2 6.3
2018-Apr-14 10:56N 37°43' E 122°17'3 6.2
2018-Apr-14 10:30N 37°42' E 122°14'3 6.1
2018-Apr-14 10:00N 37°42' E 122°10'3 6.4
2018-Apr-14 09:31N 37°43' E 122°06'3 6.5
2018-Apr-14 09:00N 37°44' E 122°02'3 6.7
2018-Apr-14 08:31N 37°44' E 121°58'4 6.9
2018-Apr-14 07:59N 37°45' E 121°54'3 7.1
2018-Apr-14 07:31N 37°46' E 121°50'4 7.0
2018-Apr-14 07:00N 37°47' E 121°45'3 7.0
2018-Apr-14 06:30N 37°48' E 121°41'3 6.8
2018-Apr-14 06:00N 37°49' E 121°37'3 6.7
2018-Apr-14 05:30N 37°50' E 121°33'3 6.6
2018-Apr-14 05:00N 37°51' E 121°29'4 7.5
2018-Apr-14 04:30N 37°52' E 121°24'4 8.8
2018-Apr-14 04:00N 37°53' E 121°19'4 8.5
2018-Apr-14 03:30N 37°54' E 121°14'4 8.4
2018-Apr-14 03:01N 37°54' E 121°08'4 8.7
2018-Apr-14 02:30N 37°52' E 121°03'4 8.9
2018-Apr-14 02:01N 37°52' E 120°57'4 8.6
2018-Apr-14 01:30N 37°52' E 120°52'3 5.2
2018-Apr-14 01:01N 37°50' E 120°49'1 1.8
2018-Apr-14 00:29N 37°49' E 120°50'0 0.0
2018-Apr-13 23:59N 37°49' E 120°50'0 0.0
2018-Apr-13 23:29N 37°49' E 120°50'0 0.0
2018-Apr-13 22:59N 37°49' E 120°50'0 0.0
2018-Apr-13 22:29N 37°49' E 120°50'0 0.0
2018-Apr-13 21:59N 37°49' E 120°50'0 0.0
2018-Apr-13 21:29N 37°49' E 120°50'0 0.0
2018-Apr-13 20:59N 37°49' E 120°50'0 0.0
2018-Apr-13 20:29N 37°49' E 120°50'0 0.0
2018-Apr-13 19:59N 37°49' E 120°50'0 0.0
2018-Apr-13 19:29N 37°49' E 120°50'0 0.0
2018-Apr-13 18:59N 37°49' E 120°50'0 0.0
2018-Apr-13 18:29N 37°49' E 120°50'0 0.0
2018-Apr-13 17:59N 37°49' E 120°50'0 0.0
2018-Apr-13 17:29N 37°49' E 120°50'0 0.0
2018-Apr-13 16:59N 37°49' E 120°50'0 0.0
2018-Apr-13 16:29N 37°49' E 120°50'0 0.0
2018-Apr-13 15:59N 37°49' E 120°50'0 0.0
2018-Apr-13 15:23N 37°49' E 120°50'0 0.0
2018-Apr-13 14:59N 37°49' E 120°50'0 0.0
2018-Apr-13 14:29N 37°49' E 120°50'0 0.0
2018-Apr-13 13:50N 37°49' E 120°50'0 0.0
2018-Apr-13 13:29N 37°49' E 120°50'0 0.0
2018-Apr-13 12:59N 37°49' E 120°50'0 0.0
2018-Apr-13 12:28N 37°49' E 120°50'0 0.0
2018-Apr-13 11:58N 37°49' E 120°50'0 0.0
2018-Apr-13 11:19N 37°49' E 120°50'0 0.0
2018-Apr-13 10:58N 37°49' E 120°50'0 0.0
2018-Apr-13 10:28N 37°49' E 120°50'0 0.0
2018-Apr-13 09:58N 37°49' E 120°50'0 0.0
2018-Apr-13 09:28N 37°49' E 120°50'0 0.0
2018-Apr-13 08:58N 37°49' E 120°50'0 0.0
2018-Apr-13 08:28N 37°49' E 120°50'0 0.0
2018-Apr-13 07:58N 37°49' E 120°50'0 0.0
2018-Apr-13 07:28N 37°49' E 120°50'0 0.0
2018-Apr-13 06:58N 37°49' E 120°50'0 0.0
2018-Apr-13 06:28N 37°49' E 120°50'0 0.0
2018-Apr-13 05:58N 37°49' E 120°50'0 0.0
2018-Apr-13 05:28N 37°49' E 120°50'0 0.0
2018-Apr-13 04:58N 37°49' E 120°50'0 0.0
2018-Apr-13 04:28N 37°49' E 120°50'0 0.0
2018-Apr-13 03:58N 37°49' E 120°50'0 0.0
2018-Apr-13 03:28N 37°49' E 120°50'0 0.0
2018-Apr-13 02:58N 37°49' E 120°50'0 0.0
2018-Apr-13 02:28N 37°49' E 120°50'0 0.0
2018-Apr-13 01:58N 37°49' E 120°50'0 0.0
2018-Apr-13 01:28N 37°49' E 120°50'0 0.0
2018-Apr-13 00:58N 37°49' E 120°50'0 0.0
2018-Apr-13 00:25N 37°49' E 120°50'0 0.0
2018-Apr-12 23:58N 37°49' E 120°50'0 0.0
2018-Apr-12 23:28N 37°49' E 120°50'0 0.0
2018-Apr-12 22:58N 37°49' E 120°50'0 0.0
2018-Apr-12 22:28N 37°49' E 120°50'0 0.0
2018-Apr-12 21:58N 37°49' E 120°50'0 0.0
2018-Apr-12 21:28N 37°49' E 120°50'0 0.0
2018-Apr-12 20:58N 37°49' E 120°50'0 0.1
2018-Apr-12 20:28N 37°49' E 120°50'0 0.1
2018-Apr-12 19:58N 37°49' E 120°50'0 0.0
2018-Apr-12 19:28N 37°49' E 120°50'0 0.0
2018-Apr-12 18:58N 37°49' E 120°50'0 0.0
2018-Apr-12 18:28N 37°49' E 120°50'0 0.1
2018-Apr-12 17:58N 37°49' E 120°50'0 0.1
2018-Apr-12 17:28N 37°49' E 120°50'0 0.0
2018-Apr-12 16:58N 37°49' E 120°50'0 0.0
2018-Apr-12 16:28N 37°49' E 120°50'0 0.0
2018-Apr-12 15:58N 37°49' E 120°50'0 0.0
2018-Apr-12 15:28N 37°49' E 120°50'0 0.1
2018-Apr-12 14:58N 37°49' E 120°50'0 0.1
2018-Apr-12 14:28N 37°49' E 120°50'0 0.0
2018-Apr-12 13:58N 37°49' E 120°50'0 0.0
2018-Apr-12 13:28N 37°49' E 120°50'0 0.0
2018-Apr-12 12:58N 37°49' E 120°50'0 0.0
2018-Apr-12 12:28N 37°49' E 120°50'0 0.0
2018-Apr-12 11:58N 37°49' E 120°50'0 0.0
2018-Apr-12 11:25N 37°49' E 120°50'0 0.0
2018-Apr-12 10:58N 37°49' E 120°50'0 0.0
2018-Apr-12 10:28N 37°49' E 120°50'0 0.0
2018-Apr-12 09:55N 37°49' E 120°50'0 0.0
2018-Apr-12 09:28N 37°49' E 120°50'0 0.0
2018-Apr-12 08:58N 37°49' E 120°50'0 0.0
2018-Apr-12 08:28N 37°49' E 120°50'0 0.0
2018-Apr-12 07:58N 37°49' E 120°50'0 0.0
2018-Apr-12 07:29N 37°49' E 120°50'0 0.0
2018-Apr-12 06:59N 37°49' E 120°50'0 0.0
2018-Apr-12 06:29N 37°49' E 120°50'0 0.0
2018-Apr-12 05:59N 37°49' E 120°50'0 0.0
2018-Apr-12 05:26N 37°49' E 120°50'0 0.0
2018-Apr-12 04:59N 37°49' E 120°50'0 0.0
2018-Apr-12 04:29N 37°49' E 120°50'0 0.0
2018-Apr-12 03:56N 37°49' E 120°50'0 0.0
2018-Apr-12 03:29N 37°49' E 120°50'0 0.1
2018-Apr-12 02:59N 37°49' E 120°50'0 0.1
2018-Apr-12 02:29N 37°49' E 120°50'0 0.0
2018-Apr-12 02:00N 37°49' E 120°50'2 4.1
2018-Apr-12 01:31N 37°50' E 120°48'0 0.3
2018-Apr-12 01:00N 37°50' E 120°48'0 0.0
2018-Apr-12 00:30N 37°50' E 120°48'0 0.1
2018-Apr-12 00:00N 37°51' E 120°48'0 0.2
2018-Apr-11 23:24N 37°50' E 120°48'0 0.2
2018-Apr-11 23:00N 37°50' E 120°48'0 0.1
2018-Apr-11 22:30N 37°50' E 120°48'0 0.0
2018-Apr-11 22:00N 37°50' E 120°48'0 0.0
2018-Apr-11 21:30N 37°50' E 120°48'0 0.0
2018-Apr-11 21:00N 37°50' E 120°48'0 0.0
2018-Apr-11 20:30N 37°50' E 120°48'0 0.0
2018-Apr-11 20:00N 37°50' E 120°48'0 0.1
2018-Apr-11 19:30N 37°50' E 120°48'0 0.1
2018-Apr-11 19:00N 37°50' E 120°48'0 0.0
2018-Apr-11 18:30N 37°50' E 120°48'0 0.1
2018-Apr-11 18:00N 37°50' E 120°48'0 0.2
2018-Apr-11 17:30N 37°51' E 120°48'0 0.1
2018-Apr-11 17:00N 37°51' E 120°48'0 0.1
2018-Apr-11 16:30N 37°51' E 120°48'0 0.0
2018-Apr-11 16:00N 37°51' E 120°48'0 0.0
2018-Apr-11 15:30N 37°50' E 120°48'0 0.0
2018-Apr-11 15:00N 37°50' E 120°48'0 0.0
2018-Apr-11 14:30N 37°50' E 120°48'0 0.0
2018-Apr-11 14:00N 37°50' E 120°48'0 0.0
2018-Apr-11 13:30N 37°50' E 120°48'0 0.0
2018-Apr-11 13:00N 37°50' E 120°48'0 0.0
2018-Apr-11 12:27N 37°50' E 120°48'0 0.0
2018-Apr-11 12:00N 37°50' E 120°48'0 0.1
2018-Apr-11 11:30N 37°51' E 120°48'0 0.1
2018-Apr-11 11:00N 37°51' E 120°48'0 0.1
2018-Apr-11 10:30N 37°51' E 120°48'0 0.0
2018-Apr-11 10:00N 37°51' E 120°48'0 0.0
2018-Apr-11 09:27N 37°51' E 120°48'0 0.0
2018-Apr-11 09:00N 37°50' E 120°48'0 0.0
2018-Apr-11 08:30N 37°50' E 120°48'0 0.0
2018-Apr-11 08:00N 37°50' E 120°48'0 0.0
2018-Apr-11 07:30N 37°50' E 120°48'0 0.0
2018-Apr-11 07:00N 37°50' E 120°48'0 0.0
2018-Apr-11 06:24N 37°50' E 120°48'0 0.0
2018-Apr-11 05:57N 37°50' E 120°48'0 0.1
2018-Apr-11 05:30N 37°50' E 120°48'0 0.0
2018-Apr-11 05:00N 37°50' E 120°48'0 0.1
2018-Apr-11 04:30N 37°50' E 120°48'0 0.0
2018-Apr-11 04:00N 37°50' E 120°48'0 0.0
2018-Apr-11 03:27N 37°50' E 120°48'0 0.1
2018-Apr-11 02:54N 37°50' E 120°48'0 0.1
2018-Apr-11 02:30N 37°50' E 120°48'0 0.0
2018-Apr-11 02:00N 37°50' E 120°48'0 0.0
2018-Apr-11 01:30N 37°50' E 120°48'0 0.0
2018-Apr-11 01:00N 37°51' E 120°48'0 0.0
2018-Apr-11 00:30N 37°50' E 120°48'0 0.0
2018-Apr-11 00:00N 37°51' E 120°48'0 0.0
2018-Apr-10 23:28N 37°51' E 120°48'0 0.0
2018-Apr-10 22:58N 37°51' E 120°48'0 0.0
2018-Apr-10 22:28N 37°50' E 120°48'0 0.0
2018-Apr-10 21:58N 37°50' E 120°48'0 0.0
2018-Apr-10 21:28N 37°51' E 120°48'0 0.0
2018-Apr-10 20:58N 37°50' E 120°48'0 0.0
2018-Apr-10 20:28N 37°50' E 120°48'0 0.0
2018-Apr-10 19:58N 37°50' E 120°48'0 0.0
2018-Apr-10 19:28N 37°50' E 120°48'0 0.0
2018-Apr-10 18:58N 37°50' E 120°48'0 0.0
2018-Apr-10 18:28N 37°50' E 120°48'0 0.0
2018-Apr-10 17:58N 37°50' E 120°48'0 0.0
2018-Apr-10 17:25N 37°50' E 120°48'0 0.0
2018-Apr-10 16:58N 37°50' E 120°48'0 0.1
2018-Apr-10 16:19N 37°50' E 120°48'0 0.1
2018-Apr-10 15:58N 37°50' E 120°48'0 0.1
2018-Apr-10 15:28N 37°50' E 120°48'0 0.1
2018-Apr-10 14:58N 37°50' E 120°48'0 0.0
2018-Apr-10 14:28N 37°50' E 120°48'0 0.0
2018-Apr-10 13:58N 37°50' E 120°48'0 0.0
2018-Apr-10 13:28N 37°50' E 120°48'0 0.0
2018-Apr-10 12:58N 37°50' E 120°48'0 0.0
2018-Apr-10 12:28N 37°50' E 120°48'0 0.1
2018-Apr-10 11:58N 37°51' E 120°48'0 0.1
2018-Apr-10 11:28N 37°51' E 120°48'0 0.1
2018-Apr-10 10:58N 37°51' E 120°48'0 0.0
2018-Apr-10 10:28N 37°51' E 120°48'0 0.9
2018-Apr-10 10:00N 37°51' E 120°49'3 6.9
2018-Apr-10 09:30N 37°52' E 120°53'4 8.3
2018-Apr-10 09:00N 37°53' E 120°58'4 7.5
2018-Apr-10 08:30N 37°54' E 121°03'4 8.2
2018-Apr-10 08:00N 37°54' E 121°08'4 7.9
2018-Apr-10 07:28N 37°54' E 121°13'4 7.7
2018-Apr-10 07:00N 37°53' E 121°17'4 7.7
2018-Apr-10 06:30N 37°53' E 121°22'4 7.7
2018-Apr-10 06:00N 37°52' E 121°27'4 7.7
2018-Apr-10 05:30N 37°51' E 121°32'4 7.9
2018-Apr-10 05:00N 37°50' E 121°37'4 8.1
2018-Apr-10 04:30N 37°50' E 121°42'4 8.2
2018-Apr-10 04:00N 37°49' E 121°47'4 8.1
2018-Apr-10 03:29N 37°48' E 121°52'8 8.1
2018-Apr-10 02:33N 37°46' E 122°01'1 8.0
2018-Apr-10 02:29N 37°46' E 122°02'4 8.1
2018-Apr-10 01:57N 37°44' E 122°07'  
2018-Apr-07 09:20N 35°02' E 129°02'1 3.5
2018-Apr-07 09:00N 35°03' E 129°03'0 0.3
2018-Apr-07 08:26N 35°03' E 129°03'0 0.0
2018-Apr-07 07:56N 35°03' E 129°03'0 0.0
2018-Apr-07 07:29N 35°03' E 129°03'0 0.0
2018-Apr-07 06:56N 35°03' E 129°03'0 0.0
2018-Apr-07 06:29N 35°03' E 129°03'0 0.1
2018-Apr-07 05:59N 35°03' E 129°03'0 0.0
2018-Apr-07 05:26N 35°03' E 129°03'0 0.0
2018-Apr-07 04:56N 35°03' E 129°03'0 0.0
2018-Apr-07 04:29N 35°03' E 129°03'0 0.0
2018-Apr-07 03:59N 35°03' E 129°03'0 0.0
2018-Apr-07 03:20N 35°03' E 129°03'0 0.0
2018-Apr-07 02:56N 35°03' E 129°03'0 0.1
2018-Apr-07 02:30N 35°03' E 129°03'9 5.6
2018-Apr-07 00:50N 35°02' E 129°15'  

Dump ship's entire track history